createdAt,value
2023-03-22T00:00:00.329Z,100199.22
2023-03-22T00:02:30.509Z,100203.72
2023-03-22T00:05:00.466Z,100192.19
2023-03-22T00:07:28.488Z,100192.22
2023-03-22T00:09:56.640Z,100191.59
2023-03-22T00:12:24.899Z,100190.63
2023-03-22T00:14:53.637Z,100177.53
2023-03-22T00:17:23.062Z,100175.84
2023-03-22T00:19:54.673Z,100178.50
2023-03-22T00:22:25.672Z,100176.09
2023-03-22T00:24:54.101Z,100174.88
2023-03-22T00:27:22.132Z,100159.13
2023-03-22T00:29:53.185Z,100159.13
2023-03-22T00:32:21.467Z,100159.59
2023-03-22T00:34:50.975Z,100158.28
2023-03-22T00:37:19.099Z,100162.53
2023-03-22T00:39:48.660Z,100164.22
2023-03-22T00:42:16.623Z,100156.34
2023-03-22T00:44:44.652Z,100153.94
2023-03-22T00:47:13.331Z,100153.81
2023-03-22T00:49:41.431Z,100160.13
2023-03-22T00:52:09.816Z,100151.59
2023-03-22T00:54:38.238Z,100156.94
2023-03-22T00:57:07.853Z,100158.87
2023-03-22T00:59:38.455Z,100157.19
2023-03-22T01:02:07.266Z,100154.78
2023-03-22T01:04:35.738Z,100159.50
2023-03-22T01:07:07.690Z,100160.06
2023-03-22T01:09:38.148Z,100159.22
2023-03-22T01:12:07.928Z,100158.63
2023-03-22T01:14:36.214Z,100155.25
2023-03-22T01:17:04.785Z,100152.56
2023-03-22T01:19:32.775Z,100141.91
2023-03-22T01:22:01.351Z,100135.09
2023-03-22T01:24:29.859Z,100143.50
2023-03-22T01:26:58.312Z,100142.03
2023-03-22T01:29:27.973Z,100139.59
2023-03-22T01:31:56.069Z,100131.97
2023-03-22T01:34:24.269Z,100132.69
2023-03-22T01:36:53.025Z,100138.28
2023-03-22T01:39:21.417Z,100135.63
2023-03-22T01:41:50.413Z,100127.75
2023-03-22T01:44:20.875Z,100121.53
2023-03-22T01:46:52.190Z,100117.69
2023-03-22T01:49:25.981Z,100123.25
2023-03-22T01:51:57.085Z,100113.53
2023-03-22T01:54:33.604Z,100110.16
2023-03-22T01:57:04.429Z,100115.03
2023-03-22T01:59:33.627Z,100117.69
2023-03-22T02:02:04.391Z,100118.66
2023-03-22T02:04:36.846Z,100114.28
2023-03-22T02:07:10.460Z,100109.91
2023-03-22T02:09:41.545Z,100113.53
2023-03-22T02:12:24.137Z,100106.53
2023-03-22T02:15:03.349Z,100106.28
2023-03-22T02:17:44.569Z,100107.38
2023-03-22T02:20:59.330Z,100099.03
2023-03-22T02:23:55.201Z,100101.31
2023-03-22T02:26:59.590Z,100104.22
2023-03-22T02:29:39.154Z,100103.00
2023-03-22T02:32:37.556Z,100097.09
2023-03-22T02:35:43.033Z,100097.19
2023-03-22T02:38:57.780Z,100101.66
2023-03-22T02:41:35.241Z,100096.25
2023-03-22T02:44:10.908Z,100089.56
2023-03-22T02:46:46.024Z,100108.22
2023-03-22T02:49:19.776Z,100100.09
2023-03-22T02:51:53.755Z,100104.31
2023-03-22T02:54:30.743Z,100105.06
2023-03-22T02:57:05.558Z,100095.25
2023-03-22T02:59:37.560Z,100094.16
2023-03-22T03:02:09.385Z,100095.13
2023-03-22T03:04:43.182Z,100090.91
2023-03-22T03:07:14.342Z,100094.41
2023-03-22T03:09:45.709Z,100083.75
2023-03-22T03:12:18.776Z,100081.94
2023-03-22T03:14:47.238Z,100086.44
2023-03-22T03:17:29.274Z,100081.56
2023-03-22T03:20:14.240Z,100089.44
2023-03-22T03:22:56.241Z,100090.53
2023-03-22T03:25:33.225Z,100085.94
2023-03-22T03:28:09.495Z,100083.50
2023-03-22T03:30:44.946Z,100080.72
2023-03-22T03:33:17.393Z,100079.41
2023-03-22T03:35:51.949Z,100075.00
2023-03-22T03:38:23.937Z,100075.78
2023-03-22T03:40:58.934Z,100080.34
2023-03-22T03:43:27.195Z,100071.63
2023-03-22T03:45:56.469Z,100075.84
2023-03-22T03:48:29.082Z,100072.97
2023-03-22T03:50:59.320Z,100072.84
2023-03-22T03:53:27.602Z,100073.31
2023-03-22T03:55:57.631Z,100081.31
2023-03-22T03:58:27.023Z,100074.06
2023-03-22T04:00:55.618Z,100084.22
2023-03-22T04:03:24.460Z,100079.03
2023-03-22T04:05:53.402Z,100077.47
2023-03-22T04:08:21.492Z,100081.81
2023-03-22T04:10:51.880Z,100079.16
2023-03-22T04:13:21.721Z,100072.13
2023-03-22T04:15:54.240Z,100074.03
2023-03-22T04:18:23.661Z,100072.34
2023-03-22T04:20:53.560Z,100071.50
2023-03-22T04:23:23.247Z,100074.53
2023-03-22T04:25:51.936Z,100072.22
2023-03-22T04:28:22.252Z,100070.06
2023-03-22T04:30:51.980Z,100072.84
2023-03-22T04:33:23.058Z,100069.44
2023-03-22T04:35:56.973Z,100065.81
2023-03-22T04:38:26.247Z,100065.69
2023-03-22T04:40:55.351Z,100062.06
2023-03-22T04:43:25.218Z,100057.69
2023-03-22T04:45:58.295Z,100054.19
2023-03-22T04:48:28.136Z,100054.41
2023-03-22T04:50:56.856Z,100061.66
2023-03-22T04:53:27.439Z,100057.44
2023-03-22T04:55:57.101Z,100064.56
2023-03-22T04:58:27.960Z,100058.72
2023-03-22T05:00:55.985Z,100062.34
2023-03-22T05:03:24.388Z,100064.28
2023-03-22T05:05:53.836Z,100054.22
2023-03-22T05:08:22.733Z,100056.03
2023-03-22T05:10:54.151Z,100048.88
2023-03-22T05:13:25.003Z,100043.69
2023-03-22T05:15:55.420Z,100045.62
2023-03-22T05:18:26.363Z,100032.44
2023-03-22T05:20:57.117Z,100029.53
2023-03-22T05:23:26.331Z,100033.28
2023-03-22T05:25:58.182Z,100033.41
2023-03-22T05:28:28.733Z,100035.09
2023-03-22T05:30:58.513Z,100035.94
2023-03-22T05:33:29.684Z,100037.75
2023-03-22T05:35:57.963Z,100034.84
2023-03-22T05:38:26.632Z,100037.37
2023-03-22T05:40:55.733Z,100047.28
2023-03-22T05:43:24.029Z,100040.75
2023-03-22T05:45:53.025Z,100040.53
2023-03-22T05:48:23.598Z,100043.22
2023-03-22T05:50:52.157Z,100044.16
2023-03-22T05:53:20.446Z,100046.09
2023-03-22T05:55:48.945Z,100049.25
2023-03-22T05:58:19.145Z,100042.44
2023-03-22T06:00:49.563Z,100045.38
2023-03-22T06:03:19.580Z,100046.34
2023-03-22T06:05:50.790Z,100050.00
2023-03-22T06:08:19.584Z,100043.38
2023-03-22T06:10:50.373Z,100046.28
2023-03-22T06:13:19.110Z,100047.03
2023-03-22T06:15:47.551Z,100047.91
2023-03-22T06:18:15.925Z,100044.00
2023-03-22T06:20:46.587Z,100041.22
2023-03-22T06:23:16.910Z,100038.81
2023-03-22T06:25:46.135Z,100039.66
2023-03-22T06:28:14.693Z,100039.91
2023-03-22T06:30:43.312Z,100049.97
2023-03-22T06:33:13.115Z,100052.25
2023-03-22T06:35:41.937Z,100061.81
2023-03-22T06:38:11.115Z,100065.09
2023-03-22T06:40:41.310Z,100073.81
2023-03-22T06:43:09.664Z,100072.47
2023-03-22T06:45:38.630Z,100073.19
2023-03-22T06:48:08.038Z,100086.03
2023-03-22T06:50:39.334Z,100075.13
2023-03-22T06:53:09.766Z,100088.00
2023-03-22T06:55:38.055Z,100074.19
2023-03-22T06:58:07.908Z,100083.25
2023-03-22T07:00:36.435Z,100082.31
2023-03-22T07:03:04.651Z,100079.62
2023-03-22T07:05:33.225Z,100074.03
2023-03-22T07:08:01.853Z,100080.22
2023-03-22T07:10:30.751Z,100078.75
2023-03-22T07:12:59.109Z,100074.50
2023-03-22T07:15:29.458Z,100071.81
2023-03-22T07:17:58.741Z,100070.81
2023-03-22T07:20:27.284Z,100072.44
2023-03-22T07:22:57.355Z,100064.53
2023-03-22T07:25:25.532Z,100065.13
2023-03-22T07:27:55.588Z,100065.09
2023-03-22T07:30:24.682Z,100054.84
2023-03-22T07:32:54.308Z,100045.84
2023-03-22T07:35:23.462Z,100056.53
2023-03-22T07:37:53.212Z,100056.03
2023-03-22T07:40:22.673Z,100058.28
2023-03-22T07:42:53.343Z,100061.56
2023-03-22T07:45:24.147Z,100064.31
2023-03-22T07:47:56.071Z,100054.25
2023-03-22T07:50:27.963Z,100056.25
2023-03-22T07:52:56.154Z,100056.81
2023-03-22T07:55:24.522Z,100052.69
2023-03-22T07:57:53.762Z,100044.84
2023-03-22T08:00:22.682Z,100048.94
2023-03-22T08:02:51.675Z,100038.34
2023-03-22T08:05:23.415Z,100042.12
2023-03-22T08:07:52.580Z,100039.00
2023-03-22T08:10:21.682Z,100038.28
2023-03-22T08:12:49.725Z,100039.97
2023-03-22T08:15:18.410Z,100041.06
2023-03-22T08:17:46.492Z,100032.44
2023-03-22T08:20:22.760Z,100037.31
2023-03-22T08:22:52.997Z,100043.34
2023-03-22T08:25:33.511Z,100039.91
2023-03-22T08:28:04.254Z,100026.69
2023-03-22T08:30:33.345Z,100038.47
2023-03-22T08:33:01.935Z,100031.75
2023-03-22T08:35:30.391Z,100027.63
2023-03-22T08:38:01.299Z,100028.41
2023-03-22T08:40:30.708Z,100023.87
2023-03-22T08:42:59.640Z,100020.41
2023-03-22T08:45:29.910Z,100021.97
2023-03-22T08:47:59.970Z,100020.28
2023-03-22T08:50:28.694Z,100015.84
2023-03-22T08:52:58.165Z,100014.91
2023-03-22T08:55:27.842Z,100006.34
2023-03-22T08:57:59.823Z,100005.34
2023-03-22T09:00:39.255Z,100004.66
2023-03-22T09:03:16.298Z,99995.66
2023-03-22T09:05:44.986Z,99987.97
2023-03-22T09:08:19.226Z,99984.03
2023-03-22T09:10:51.893Z,99982.59
2023-03-22T09:13:21.315Z,99981.97
2023-03-22T09:15:51.814Z,99978.94
2023-03-22T09:18:21.096Z,99976.38
2023-03-22T09:20:49.444Z,99981.34
2023-03-22T09:23:19.662Z,99973.34
2023-03-22T09:25:49.763Z,99969.87
2023-03-22T09:28:19.309Z,99983.88
2023-03-22T09:30:47.527Z,99974.09
2023-03-22T09:33:16.495Z,99977.44
2023-03-22T09:35:45.447Z,99979.19
2023-03-22T09:38:13.866Z,99969.22
2023-03-22T09:40:52.054Z,99973.38
2023-03-22T09:43:22.166Z,99972.00
2023-03-22T09:45:53.070Z,99966.59
2023-03-22T09:48:28.538Z,99958.56
2023-03-22T09:50:57.157Z,99955.44
2023-03-22T09:53:28.828Z,99949.22
2023-03-22T09:56:04.985Z,99947.75
2023-03-22T09:58:37.843Z,99946.91
2023-03-22T10:01:13.052Z,99939.16
2023-03-22T10:04:04.199Z,99942.03
2023-03-22T10:06:32.577Z,99944.16
2023-03-22T10:09:08.384Z,99937.38
2023-03-22T10:11:45.810Z,99932.84
2023-03-22T10:14:40.002Z,99945.59
2023-03-22T10:17:13.040Z,99927.06
2023-03-22T10:19:52.657Z,99940.81
2023-03-22T10:22:25.272Z,99921.50
2023-03-22T10:24:55.647Z,99920.19
2023-03-22T10:27:27.154Z,99912.47
2023-03-22T10:30:00.605Z,99910.19
2023-03-22T10:32:33.325Z,99907.50
2023-03-22T10:35:01.687Z,99909.28
2023-03-22T10:37:34.281Z,99901.28
2023-03-22T10:40:07.790Z,99898.66
2023-03-22T10:42:39.946Z,99894.31
2023-03-22T10:45:13.299Z,99876.63
2023-03-22T10:47:46.557Z,99872.34
2023-03-22T10:50:19.471Z,99880.63
2023-03-22T10:52:52.983Z,99878.94
2023-03-22T10:55:21.470Z,99883.97
2023-03-22T10:58:12.811Z,99881.09
2023-03-22T11:00:45.694Z,99886.31
2023-03-22T11:03:27.132Z,99887.13
2023-03-22T11:06:00.573Z,99893.91
2023-03-22T11:08:28.749Z,99892.13
2023-03-22T11:11:00.313Z,99883.09
2023-03-22T11:13:29.905Z,99878.56
2023-03-22T11:16:02.591Z,99883.47
2023-03-22T11:18:32.979Z,99876.78
2023-03-22T11:21:07.253Z,99883.34
2023-03-22T11:23:38.581Z,99883.00
2023-03-22T11:26:10.640Z,99873.41
2023-03-22T11:28:47.131Z,99868.59
2023-03-22T11:31:17.796Z,99850.34
2023-03-22T11:33:56.891Z,99857.50
2023-03-22T11:36:26.215Z,99861.69
2023-03-22T11:38:58.481Z,99855.44
2023-03-22T11:41:29.099Z,99851.59
2023-03-22T11:44:02.739Z,99860.69
2023-03-22T11:46:31.981Z,99847.84
2023-03-22T11:49:03.132Z,99828.91
2023-03-22T11:51:35.055Z,99827.25
2023-03-22T11:54:13.933Z,99826.44
2023-03-22T11:56:44.677Z,99810.78
2023-03-22T11:59:18.037Z,99806.03
2023-03-22T12:01:53.206Z,99802.00
2023-03-22T12:04:26.753Z,99800.66
2023-03-22T12:06:58.059Z,99792.22
2023-03-22T12:09:36.379Z,99776.84
2023-03-22T12:12:06.493Z,99770.59
2023-03-22T12:14:44.715Z,99766.81
2023-03-22T12:17:17.092Z,99763.81
2023-03-22T12:19:54.559Z,99765.13
2023-03-22T12:22:28.209Z,99765.63
2023-03-22T12:24:56.490Z,99766.59
2023-03-22T12:27:31.710Z,99762.63
2023-03-22T12:30:08.015Z,99761.84
2023-03-22T12:32:42.027Z,99763.63
2023-03-22T12:35:18.220Z,99763.59
2023-03-22T12:37:50.629Z,99765.22
2023-03-22T12:40:25.343Z,99752.47
2023-03-22T12:43:00.517Z,99750.91
2023-03-22T12:45:33.187Z,99756.59
2023-03-22T12:48:11.313Z,99736.19
2023-03-22T12:50:44.581Z,99745.69
2023-03-22T12:53:16.345Z,99741.97
2023-03-22T12:55:46.177Z,99751.66
2023-03-22T12:58:18.013Z,99744.66
2023-03-22T13:00:52.411Z,99742.00
2023-03-22T13:03:26.968Z,99739.63
2023-03-22T13:06:05.317Z,99760.72
2023-03-22T13:09:19.593Z,99761.66
2023-03-22T13:11:50.141Z,99766.41
2023-03-22T13:14:52.814Z,99765.44
2023-03-22T13:17:39.583Z,99773.69
2023-03-22T13:20:27.358Z,99776.34
2023-03-22T13:23:06.870Z,99767.78
2023-03-22T13:25:37.020Z,99764.81
2023-03-22T13:28:23.518Z,99769.75
2023-03-22T13:30:53.429Z,99749.03
2023-03-22T13:33:28.151Z,99754.06
2023-03-22T13:35:59.020Z,99748.00
2023-03-22T13:38:30.177Z,99744.69
2023-03-22T13:41:01.976Z,99742.72
2023-03-22T13:43:33.898Z,99745.41
2023-03-22T13:46:14.082Z,99746.06
2023-03-22T13:49:00.328Z,99742.19
2023-03-22T13:51:32.021Z,99735.09
2023-03-22T13:54:08.001Z,99736.97
2023-03-22T13:56:52.977Z,99736.19
2023-03-22T13:59:27.082Z,99735.00
2023-03-22T14:02:00.307Z,99733.53
2023-03-22T14:04:37.937Z,99736.50
2023-03-22T14:07:11.155Z,99730.31
2023-03-22T14:09:44.898Z,99729.66
2023-03-22T14:12:20.637Z,99726.75
2023-03-22T14:14:54.461Z,99720.50
2023-03-22T14:17:32.956Z,99719.72
2023-03-22T14:20:05.204Z,99721.53
